createdAt,value
2023-12-24T00:01:26.273Z,0.21
2023-12-24T00:03:54.263Z,0.29
2023-12-24T00:06:22.425Z,0.30
2023-12-24T00:08:50.565Z,0.21
2023-12-24T00:11:18.622Z,0.15
2023-12-24T00:13:46.708Z,0.19
2023-12-24T00:16:15.775Z,0.22
2023-12-24T00:18:44.019Z,0.24
2023-12-24T00:21:15.431Z,0.28
2023-12-24T00:23:43.961Z,0.31
2023-12-24T00:26:12.547Z,0.31
2023-12-24T00:28:40.801Z,0.29
2023-12-24T00:31:11.931Z,0.28
2023-12-24T00:33:40.498Z,0.32
2023-12-24T00:36:09.137Z,0.35
2023-12-24T00:38:37.402Z,0.39
2023-12-24T00:41:06.233Z,0.35
2023-12-24T00:43:34.792Z,0.39
2023-12-24T00:46:02.852Z,0.44
2023-12-24T00:48:31.113Z,0.50
2023-12-24T00:50:59.260Z,0.46
2023-12-24T00:53:27.450Z,0.56
2023-12-24T00:55:55.631Z,0.63
2023-12-24T00:58:24.033Z,0.68
2023-12-24T01:00:52.291Z,0.64
2023-12-24T01:03:21.309Z,0.66
2023-12-24T01:05:50.226Z,0.57
2023-12-24T01:08:18.491Z,0.52
2023-12-24T01:10:46.852Z,0.49
2023-12-24T01:13:20.132Z,0.60
2023-12-24T01:15:48.413Z,0.61
2023-12-24T01:18:16.969Z,0.49
2023-12-24T01:20:45.631Z,0.50
2023-12-24T01:23:14.062Z,0.45
2023-12-24T01:25:42.144Z,0.41
2023-12-24T01:28:10.357Z,0.45
2023-12-24T01:30:38.556Z,0.41
2023-12-24T01:33:06.796Z,0.36
2023-12-24T01:35:38.723Z,0.44
2023-12-24T01:38:06.850Z,0.42
2023-12-24T01:40:34.869Z,0.44
2023-12-24T01:43:03.504Z,0.47
2023-12-24T01:45:31.783Z,0.47
2023-12-24T01:47:59.935Z,0.52
2023-12-24T01:50:30.738Z,0.50
2023-12-24T01:52:59.450Z,0.54
2023-12-24T01:55:27.860Z,0.44
2023-12-24T01:57:56.068Z,0.48
2023-12-24T02:00:24.149Z,0.59
2023-12-24T02:02:53.099Z,0.64
2023-12-24T02:05:21.792Z,0.69
2023-12-24T02:07:52.461Z,0.75
2023-12-24T02:10:20.730Z,0.74
2023-12-24T02:12:50.132Z,0.79
2023-12-24T02:15:18.561Z,0.77
2023-12-24T02:17:47.736Z,0.78
2023-12-24T02:20:20.251Z,0.81
2023-12-24T02:22:48.307Z,0.87
2023-12-24T02:25:16.514Z,0.92
2023-12-24T02:28:07.687Z,0.94
2023-12-24T02:30:42.623Z,0.80
2023-12-24T02:33:14.085Z,0.83
2023-12-24T02:35:45.334Z,0.81
2023-12-24T02:38:13.737Z,0.79
2023-12-24T02:40:41.790Z,0.81
2023-12-24T02:43:09.859Z,0.79
2023-12-24T02:45:41.155Z,0.75
2023-12-24T02:48:09.394Z,0.76
2023-12-24T02:50:38.476Z,0.84
2023-12-24T02:53:06.757Z,0.88
2023-12-24T02:55:34.960Z,0.91
2023-12-24T02:58:03.489Z,0.97
2023-12-24T03:00:31.631Z,1.01
2023-12-24T03:03:00.483Z,1.03
2023-12-24T03:05:28.893Z,1.03
2023-12-24T03:07:57.164Z,1.06
2023-12-24T03:10:25.374Z,0.96
2023-12-24T03:12:54.330Z,0.80
2023-12-24T03:15:22.949Z,0.75
2023-12-24T03:17:51.587Z,0.75
2023-12-24T03:20:20.794Z,0.80
2023-12-24T03:22:49.250Z,0.82
2023-12-24T03:25:18.231Z,0.84
2023-12-24T03:27:46.293Z,0.85
2023-12-24T03:30:14.826Z,0.90
2023-12-24T03:32:43.119Z,0.90
2023-12-24T03:35:11.363Z,0.92
2023-12-24T03:37:39.697Z,0.87
2023-12-24T03:40:08.630Z,0.82
2023-12-24T03:42:36.710Z,0.85
2023-12-24T03:45:05.323Z,0.91
2023-12-24T03:47:33.399Z,0.90
2023-12-24T03:50:01.900Z,0.88
2023-12-24T03:52:30.048Z,0.90
2023-12-24T03:54:58.297Z,0.91
2023-12-24T03:57:26.441Z,0.94
2023-12-24T03:59:54.499Z,0.92
2023-12-24T04:02:26.050Z,0.85
2023-12-24T04:04:54.601Z,0.89
2023-12-24T04:07:22.890Z,0.84
2023-12-24T04:09:51.167Z,0.68
2023-12-24T04:12:19.418Z,0.64
2023-12-24T04:14:47.642Z,0.64
2023-12-24T04:17:15.771Z,0.67
2023-12-24T04:19:43.866Z,0.72
2023-12-24T04:22:12.230Z,0.76
2023-12-24T04:24:40.285Z,0.71
2023-12-24T04:27:08.318Z,0.74
2023-12-24T04:29:36.528Z,0.74
2023-12-24T04:32:05.262Z,0.76
2023-12-24T04:34:33.403Z,0.78
2023-12-24T04:37:01.560Z,0.80
2023-12-24T04:39:29.797Z,0.80
2023-12-24T04:41:58.083Z,0.84
2023-12-24T04:44:26.297Z,0.88
2023-12-24T04:46:55.215Z,0.86
2023-12-24T04:49:23.333Z,0.88
2023-12-24T04:51:51.642Z,0.88
2023-12-24T04:54:20.270Z,0.87
2023-12-24T04:56:48.498Z,0.85
2023-12-24T04:59:16.596Z,0.82
2023-12-24T05:01:44.785Z,0.84
2023-12-24T05:04:12.819Z,0.82
2023-12-24T05:06:41.962Z,0.87
2023-12-24T05:09:11.132Z,0.93
2023-12-24T05:11:41.458Z,0.99
2023-12-24T05:14:09.810Z,0.95
2023-12-24T05:16:38.134Z,0.96
2023-12-24T05:19:06.249Z,1.00
2023-12-24T05:21:34.486Z,1.00
2023-12-24T05:24:02.676Z,0.95
2023-12-24T05:26:30.817Z,0.94
2023-12-24T05:28:59.220Z,0.98
2023-12-24T05:31:27.373Z,0.97
2023-12-24T05:33:55.443Z,0.98
2023-12-24T05:36:23.585Z,1.03
2023-12-24T05:38:51.971Z,1.10
2023-12-24T05:41:20.119Z,1.10
2023-12-24T05:43:48.364Z,1.07
2023-12-24T05:46:16.565Z,1.03
2023-12-24T05:48:44.787Z,1.02
2023-12-24T05:51:13.218Z,1.02
2023-12-24T05:53:41.357Z,0.96
2023-12-24T05:56:12.300Z,0.99
2023-12-24T05:58:40.756Z,0.96
2023-12-24T06:01:09.081Z,0.99
2023-12-24T06:03:37.248Z,1.05
2023-12-24T06:06:05.996Z,1.08
2023-12-24T06:08:34.310Z,1.11
2023-12-24T06:11:02.534Z,1.10
2023-12-24T06:13:30.885Z,1.08
2023-12-24T06:15:58.932Z,1.10
2023-12-24T06:18:27.221Z,1.12
2023-12-24T06:20:55.541Z,1.14
2023-12-24T06:23:23.644Z,1.14
2023-12-24T06:25:52.135Z,1.19
2023-12-24T06:28:20.253Z,1.19
2023-12-24T06:30:48.620Z,1.18
2023-12-24T06:33:16.857Z,1.21
2023-12-24T06:35:45.186Z,1.25
2023-12-24T06:38:13.352Z,1.25
2023-12-24T06:40:41.525Z,1.29
2023-12-24T06:43:09.976Z,1.30
2023-12-24T06:45:38.186Z,1.34
2023-12-24T06:48:07.214Z,1.36
2023-12-24T06:50:35.666Z,1.35
2023-12-24T06:53:04.805Z,1.31
2023-12-24T06:55:32.915Z,1.32
2023-12-24T06:58:04.231Z,1.31
2023-12-24T07:00:32.459Z,1.33
2023-12-24T07:03:00.638Z,1.44
2023-12-24T07:05:35.573Z,1.53
2023-12-24T07:08:04.378Z,1.62
2023-12-24T07:10:32.892Z,1.64
2023-12-24T07:13:01.349Z,1.60
2023-12-24T07:15:32.824Z,1.56
2023-12-24T07:18:01.408Z,1.63
2023-12-24T07:20:29.988Z,1.68
2023-12-24T07:23:00.150Z,1.66
2023-12-24T07:25:29.802Z,1.65
2023-12-24T07:27:57.883Z,1.67
2023-12-24T07:30:26.390Z,1.79
2023-12-24T07:32:55.066Z,1.90
2023-12-24T07:35:23.509Z,2.00
2023-12-24T07:37:51.747Z,2.05
2023-12-24T07:40:19.859Z,2.14
2023-12-24T07:42:48.174Z,2.03
2023-12-24T07:45:16.739Z,1.95
2023-12-24T07:47:44.924Z,2.07
2023-12-24T07:50:13.132Z,2.15
2023-12-24T07:52:41.277Z,2.24
2023-12-24T07:55:09.518Z,2.29
2023-12-24T07:57:37.598Z,2.32
2023-12-24T08:00:08.983Z,2.42
2023-12-24T08:02:43.482Z,2.37
2023-12-24T08:05:12.198Z,2.45
2023-12-24T08:07:40.651Z,2.52
2023-12-24T08:10:09.307Z,2.64
2023-12-24T08:12:37.372Z,2.69
2023-12-24T08:15:07.737Z,2.81
2023-12-24T08:17:36.121Z,2.93
2023-12-24T08:20:09.128Z,2.97
2023-12-24T08:22:38.291Z,3.00
2023-12-24T08:25:06.901Z,2.97
2023-12-24T08:27:35.058Z,3.07
2023-12-24T08:30:03.659Z,3.12
2023-12-24T08:32:31.798Z,3.09
2023-12-24T08:35:00.067Z,3.12
2023-12-24T08:37:28.223Z,3.14
2023-12-24T08:39:56.302Z,3.16
2023-12-24T08:42:24.599Z,3.19
2023-12-24T08:44:52.774Z,3.28
2023-12-24T08:47:20.940Z,3.40
2023-12-24T08:49:49.080Z,3.51
2023-12-24T08:52:17.141Z,3.57
2023-12-24T08:54:45.568Z,3.66
2023-12-24T08:57:14.046Z,3.73
2023-12-24T08:59:42.290Z,3.80
2023-12-24T09:02:11.096Z,3.87
2023-12-24T09:04:39.338Z,3.94
2023-12-24T09:07:07.375Z,4.03
2023-12-24T09:09:35.968Z,3.98
2023-12-24T09:12:04.719Z,3.99
2023-12-24T09:14:32.800Z,3.96
2023-12-24T09:17:01.207Z,3.80
2023-12-24T09:19:29.314Z,3.75
2023-12-24T09:21:57.853Z,3.71
2023-12-24T09:24:26.176Z,3.71
2023-12-24T09:26:54.227Z,3.69
2023-12-24T09:29:23.131Z,3.76
2023-12-24T09:31:51.280Z,3.88
2023-12-24T09:34:19.800Z,3.98
2023-12-24T09:36:48.052Z,4.10
2023-12-24T09:39:16.305Z,4.12
2023-12-24T09:41:44.652Z,4.16
2023-12-24T09:44:12.975Z,4.19
2023-12-24T09:46:41.071Z,4.21
2023-12-24T09:49:09.199Z,4.27
2023-12-24T09:51:40.348Z,4.36
2023-12-24T09:54:10.440Z,4.42
2023-12-24T09:56:39.168Z,4.43
2023-12-24T09:59:08.341Z,4.41
2023-12-24T10:01:43.399Z,4.38
2023-12-24T10:04:12.707Z,4.39
2023-12-24T10:06:58.149Z,4.40
2023-12-24T10:09:43.200Z,4.37
2023-12-24T10:12:11.916Z,4.32
2023-12-24T10:14:41.728Z,4.37
2023-12-24T10:17:09.960Z,4.33
2023-12-24T10:19:38.350Z,4.26
2023-12-24T10:22:08.202Z,4.24
2023-12-24T10:24:39.650Z,4.13
2023-12-24T10:27:12.501Z,4.00
2023-12-24T10:29:42.708Z,3.92
2023-12-24T10:32:14.156Z,3.88
2023-12-24T10:34:42.316Z,3.96
2023-12-24T10:37:19.561Z,4.06
2023-12-24T10:39:50.138Z,4.15
2023-12-24T10:42:18.343Z,4.19
2023-12-24T10:44:46.975Z,4.22
2023-12-24T10:47:15.109Z,4.26
2023-12-24T10:49:43.272Z,4.21
2023-12-24T10:52:11.734Z,4.12
2023-12-24T10:54:42.699Z,3.99
2023-12-24T10:57:25.336Z,3.90
2023-12-24T11:00:15.865Z,3.91
2023-12-24T11:02:51.514Z,3.93
2023-12-24T11:05:46.660Z,3.88
2023-12-24T11:08:24.324Z,3.87
2023-12-24T11:10:58.676Z,3.82
2023-12-24T11:13:32.991Z,3.80
2023-12-24T11:16:05.632Z,3.72
2023-12-24T11:18:49.096Z,3.67
2023-12-24T11:21:20.685Z,3.62
2023-12-24T11:24:15.532Z,3.55
2023-12-24T11:26:55.137Z,3.45
2023-12-24T11:29:41.993Z,3.44
2023-12-24T11:32:25.685Z,3.36
2023-12-24T11:34:56.186Z,3.37
2023-12-24T11:37:28.111Z,3.30
2023-12-24T11:40:20.184Z,3.32
2023-12-24T11:42:53.522Z,3.31
2023-12-24T11:45:33.218Z,3.28
2023-12-24T11:48:03.227Z,3.18
2023-12-24T11:50:31.659Z,3.11
2023-12-24T11:53:00.808Z,3.05
2023-12-24T11:55:28.956Z,2.97
2023-12-24T11:57:57.836Z,2.99
2023-12-24T12:00:28.103Z,3.04
2023-12-24T12:03:00.166Z,3.10
2023-12-24T12:05:30.739Z,3.15
2023-12-24T12:07:59.173Z,3.12
2023-12-24T12:10:27.298Z,3.10
2023-12-24T12:12:55.706Z,3.15
2023-12-24T12:15:25.348Z,3.19
2023-12-24T12:17:53.987Z,3.22
2023-12-24T12:20:22.259Z,3.16
2023-12-24T12:22:52.326Z,3.15
2023-12-24T12:25:20.793Z,3.11
2023-12-24T12:27:49.453Z,3.06
2023-12-24T12:30:20.737Z,3.07
2023-12-24T12:32:49.943Z,3.09
2023-12-24T12:35:18.748Z,3.14
2023-12-24T12:37:47.676Z,3.18
2023-12-24T12:40:15.795Z,3.16
2023-12-24T12:42:44.699Z,3.14
2023-12-24T12:45:13.736Z,3.13
2023-12-24T12:47:42.543Z,3.13
2023-12-24T12:50:11.379Z,3.08
2023-12-24T12:52:39.895Z,3.01
2023-12-24T12:55:12.897Z,2.95
2023-12-24T12:57:43.391Z,2.91
2023-12-24T13:00:15.203Z,2.88
2023-12-24T13:02:44.536Z,2.83
2023-12-24T13:05:33.937Z,2.83
2023-12-24T13:08:14.268Z,2.78
2023-12-24T13:10:44.039Z,2.77
2023-12-24T13:13:18.921Z,2.76
2023-12-24T13:15:48.026Z,2.72
2023-12-24T13:18:37.906Z,2.67
2023-12-24T13:21:10.670Z,2.64
2023-12-24T13:23:39.812Z,2.56
2023-12-24T13:26:08.181Z,2.60
2023-12-24T13:28:38.674Z,2.58
2023-12-24T13:31:08.711Z,2.56
2023-12-24T13:33:37.059Z,2.55
2023-12-24T13:36:06.076Z,2.52
2023-12-24T13:38:34.204Z,2.54
2023-12-24T13:41:02.466Z,2.54
2023-12-24T13:43:30.545Z,2.52
2023-12-24T13:45:59.390Z,2.48
2023-12-24T13:48:28.059Z,2.39
2023-12-24T13:50:56.557Z,2.37
2023-12-24T13:53:31.776Z,2.43
2023-12-24T13:56:02.751Z,2.40
2023-12-24T13:58:35.074Z,2.30
2023-12-24T14:01:03.988Z,2.37
2023-12-24T14:03:32.399Z,2.34
2023-12-24T14:06:01.543Z,2.25
2023-12-24T14:08:31.995Z,2.21
2023-12-24T14:11:00.338Z,2.18
2023-12-24T14:13:28.491Z,2.19
2023-12-24T14:15:58.436Z,2.19
2023-12-24T14:18:26.700Z,2.16
2023-12-24T14:20:55.009Z,2.20
2023-12-24T14:23:23.261Z,2.24
2023-12-24T14:25:51.741Z,2.24
2023-12-24T14:28:19.888Z,2.30
2023-12-24T14:30:51.623Z,2.26
2023-12-24T14:33:20.349Z,2.28
2023-12-24T14:35:49.079Z,2.29
2023-12-24T14:38:18.281Z,2.30
2023-12-24T14:40:46.966Z,2.31
2023-12-24T14:43:15.139Z,2.30
2023-12-24T14:45:43.259Z,2.28
2023-12-24T14:48:14.544Z,2.26
2023-12-24T14:50:43.196Z,2.29
2023-12-24T14:53:11.411Z,2.28
2023-12-24T14:55:39.650Z,2.32
2023-12-24T14:58:07.790Z,2.34
2023-12-24T15:00:36.267Z,2.36
2023-12-24T15:03:05.259Z,2.40
2023-12-24T15:05:33.774Z,2.43
2023-12-24T15:08:01.973Z,2.44
2023-12-24T15:10:30.133Z,2.44
2023-12-24T15:12:58.140Z,2.38
2023-12-24T15:15:27.835Z,2.32
2023-12-24T15:17:55.997Z,2.30
2023-12-24T15:20:24.304Z,2.29
2023-12-24T15:22:52.704Z,2.29
2023-12-24T15:25:21.080Z,2.32
2023-12-24T15:27:49.166Z,2.40
2023-12-24T15:30:18.238Z,2.39
2023-12-24T15:32:46.781Z,2.41
2023-12-24T15:35:15.185Z,2.43
2023-12-24T15:37:43.239Z,2.46
2023-12-24T15:40:11.863Z,2.46
2023-12-24T15:42:39.901Z,2.48
2023-12-24T15:45:08.623Z,2.48
2023-12-24T15:47:37.320Z,2.54
2023-12-24T15:50:05.971Z,2.62
2023-12-24T15:52:37.111Z,2.59
2023-12-24T15:55:06.558Z,2.64
2023-12-24T15:57:36.736Z,2.65
2023-12-24T16:00:07.262Z,2.67
2023-12-24T16:02:39.587Z,2.72
2023-12-24T16:05:11.957Z,2.74
2023-12-24T16:07:40.449Z,2.76
2023-12-24T16:10:08.916Z,2.78
2023-12-24T16:12:36.986Z,2.71
2023-12-24T16:15:06.322Z,2.66
2023-12-24T16:17:34.739Z,2.61
2023-12-24T16:20:02.914Z,2.61
2023-12-24T16:22:30.978Z,2.61
2023-12-24T16:24:58.972Z,2.56
2023-12-24T16:27:28.799Z,2.54
2023-12-24T16:29:56.803Z,2.55
2023-12-24T16:32:25.012Z,2.60
2023-12-24T16:34:54.508Z,2.63
2023-12-24T16:37:23.141Z,2.60
2023-12-24T16:39:51.321Z,2.61
2023-12-24T16:42:19.901Z,2.64
2023-12-24T16:44:48.129Z,2.62
2023-12-24T16:47:16.427Z,2.61
2023-12-24T16:49:44.602Z,2.62
2023-12-24T16:52:12.638Z,2.66
2023-12-24T16:54:40.949Z,2.67
2023-12-24T16:57:09.053Z,2.68
2023-12-24T16:59:37.734Z,2.68
2023-12-24T17:02:05.768Z,2.71
2023-12-24T17:04:33.832Z,2.74
2023-12-24T17:07:01.938Z,2.67
2023-12-24T17:09:39.212Z,2.64
2023-12-24T17:12:07.684Z,2.67
2023-12-24T17:14:40.452Z,2.65
2023-12-24T17:17:08.646Z,2.51
2023-12-24T17:19:36.947Z,2.59
2023-12-24T17:22:05.311Z,2.60
2023-12-24T17:24:33.573Z,2.60
2023-12-24T17:27:01.676Z,2.63
2023-12-24T17:29:29.983Z,2.69
2023-12-24T17:31:58.019Z,2.71
2023-12-24T17:34:26.508Z,2.72
2023-12-24T17:36:54.954Z,2.73
2023-12-24T17:39:23.633Z,2.73
2023-12-24T17:41:51.729Z,2.72
2023-12-24T17:44:20.842Z,2.67
2023-12-24T17:46:49.003Z,2.65
2023-12-24T17:49:17.288Z,2.63
2023-12-24T17:51:45.564Z,2.62
2023-12-24T17:54:13.828Z,2.60
2023-12-24T17:56:43.897Z,2.56
2023-12-24T17:59:12.307Z,2.47
2023-12-24T18:01:40.506Z,2.37
2023-12-24T18:04:08.572Z,2.39
2023-12-24T18:06:36.721Z,2.43
2023-12-24T18:09:05.487Z,2.48
2023-12-24T18:11:34.802Z,2.52
2023-12-24T18:14:03.030Z,2.56
2023-12-24T18:16:31.363Z,2.59
2023-12-24T18:18:59.616Z,2.63
2023-12-24T18:21:28.004Z,2.66
2023-12-24T18:23:56.046Z,2.71
2023-12-24T18:26:24.209Z,2.76
2023-12-24T18:28:52.435Z,2.79
2023-12-24T18:31:20.800Z,2.80
2023-12-24T18:33:49.288Z,2.81
2023-12-24T18:36:20.737Z,2.79
2023-12-24T18:38:53.335Z,2.79
2023-12-24T18:41:29.618Z,2.76
2023-12-24T18:43:58.146Z,2.74
2023-12-24T18:46:26.286Z,2.74
2023-12-24T18:48:54.423Z,2.73
2023-12-24T18:51:23.199Z,2.70
2023-12-24T18:53:52.089Z,2.73
2023-12-24T18:56:23.861Z,2.70
2023-12-24T18:58:53.458Z,2.71
2023-12-24T19:01:22.220Z,2.72
2023-12-24T19:03:50.376Z,2.74
2023-12-24T19:06:26.134Z,2.76
2023-12-24T19:08:56.415Z,2.80
2023-12-24T19:11:24.662Z,2.77
2023-12-24T19:13:53.028Z,2.80
2023-12-24T19:16:21.300Z,2.76
2023-12-24T19:18:50.045Z,2.75
2023-12-24T19:21:18.374Z,2.72
2023-12-24T19:23:48.308Z,2.70
2023-12-24T19:26:17.546Z,2.69
2023-12-24T19:28:45.990Z,2.67
2023-12-24T19:31:14.220Z,2.70
2023-12-24T19:33:42.666Z,2.72
2023-12-24T19:36:12.352Z,2.72
2023-12-24T19:38:40.432Z,2.72
2023-12-24T19:41:08.467Z,2.75
2023-12-24T19:43:36.535Z,2.75
2023-12-24T19:46:05.863Z,2.74
2023-12-24T19:48:34.131Z,2.77
2023-12-24T19:51:07.269Z,2.79
2023-12-24T19:53:36.346Z,2.82
2023-12-24T19:56:05.292Z,2.88
2023-12-24T19:58:33.668Z,2.92
2023-12-24T20:01:02.888Z,2.90
2023-12-24T20:03:31.171Z,2.90
2023-12-24T20:05:59.443Z,2.84
2023-12-24T20:08:27.766Z,2.83
2023-12-24T20:10:56.594Z,2.82
2023-12-24T20:13:24.646Z,2.79
2023-12-24T20:15:52.758Z,2.76
2023-12-24T20:18:21.089Z,2.74
2023-12-24T20:20:49.734Z,2.78
2023-12-24T20:23:18.190Z,2.80
2023-12-24T20:25:46.338Z,2.77
2023-12-24T20:28:14.516Z,2.80
2023-12-24T20:30:43.072Z,2.76
2023-12-24T20:33:11.580Z,2.75
2023-12-24T20:35:39.868Z,2.72
2023-12-24T20:38:08.209Z,2.74
2023-12-24T20:40:36.262Z,2.72
2023-12-24T20:43:05.413Z,2.68
2023-12-24T20:45:34.452Z,2.66
2023-12-24T20:48:03.016Z,2.74
2023-12-24T20:50:31.482Z,2.78
2023-12-24T20:52:59.585Z,2.80
2023-12-24T20:55:27.624Z,2.81
2023-12-24T20:57:56.083Z,2.85
2023-12-24T21:00:24.179Z,2.86
2023-12-24T21:02:52.741Z,2.88
2023-12-24T21:05:21.262Z,2.92
2023-12-24T21:07:49.449Z,2.96
2023-12-24T21:10:18.469Z,2.98
2023-12-24T21:12:46.759Z,3.00
2023-12-24T21:15:15.153Z,3.00
2023-12-24T21:17:43.957Z,2.99
2023-12-24T21:20:12.545Z,3.00
2023-12-24T21:22:40.871Z,2.98
2023-12-24T21:25:10.292Z,2.95
2023-12-24T21:27:38.694Z,2.97
2023-12-24T21:30:07.785Z,2.90
2023-12-24T21:32:36.118Z,2.87
2023-12-24T21:35:04.759Z,2.89
2023-12-24T21:37:33.133Z,2.92
2023-12-24T21:40:01.389Z,2.96
2023-12-24T21:42:29.767Z,2.97
2023-12-24T21:44:57.934Z,3.02
2023-12-24T21:47:26.124Z,3.10
2023-12-24T21:49:54.312Z,3.13
2023-12-24T21:52:22.359Z,3.18
2023-12-24T21:54:50.457Z,3.20
2023-12-24T21:57:19.828Z,3.21
2023-12-24T21:59:47.927Z,3.21
2023-12-24T22:02:16.419Z,3.18
2023-12-24T22:04:44.529Z,3.16
2023-12-24T22:07:12.664Z,3.10
2023-12-24T22:09:40.776Z,3.08
2023-12-24T22:12:08.896Z,3.06
2023-12-24T22:14:37.516Z,3.02
2023-12-24T22:17:05.605Z,3.06
2023-12-24T22:19:33.773Z,3.05
2023-12-24T22:22:01.945Z,3.08
2023-12-24T22:24:30.353Z,3.12
2023-12-24T22:26:59.000Z,3.13
2023-12-24T22:29:27.246Z,3.12
2023-12-24T22:31:55.421Z,3.16
2023-12-24T22:34:23.712Z,3.19
2023-12-24T22:36:51.918Z,3.25
2023-12-24T22:39:19.975Z,3.22
2023-12-24T22:41:48.073Z,3.17
2023-12-24T22:44:16.272Z,3.14
2023-12-24T22:46:44.811Z,3.12
2023-12-24T22:49:13.120Z,3.11
2023-12-24T22:51:41.373Z,3.08
2023-12-24T22:54:09.457Z,3.06
2023-12-24T22:56:37.760Z,3.11
2023-12-24T22:59:06.015Z,3.13
2023-12-24T23:01:34.694Z,3.12
2023-12-24T23:04:03.031Z,3.12
2023-12-24T23:06:31.260Z,3.14
2023-12-24T23:08:59.459Z,3.14
2023-12-24T23:11:27.686Z,3.20
2023-12-24T23:13:55.754Z,3.21
2023-12-24T23:16:24.440Z,3.25
2023-12-24T23:18:52.607Z,3.27
2023-12-24T23:21:21.089Z,3.24
2023-12-24T23:23:49.523Z,3.27
2023-12-24T23:26:18.009Z,3.24
2023-12-24T23:28:46.274Z,3.24
2023-12-24T23:31:14.367Z,3.17
2023-12-24T23:33:42.514Z,3.14
2023-12-24T23:38:40.173Z,3.15
2023-12-24T23:41:08.396Z,3.16
2023-12-24T23:43:39.567Z,3.17
2023-12-24T23:46:12.867Z,3.17
2023-12-24T23:48:41.199Z,3.18
2023-12-24T23:51:09.820Z,3.18
2023-12-24T23:53:37.926Z,3.20
2023-12-24T23:56:13.583Z,3.19
2023-12-24T23:58:41.694Z,3.19
